createdAt,value
2022-11-13T00:00:02.313Z,102421.00
2022-11-13T00:02:28.836Z,102425.78
2022-11-13T00:04:55.296Z,102413.84
2022-11-13T00:07:21.791Z,102409.72
2022-11-13T00:09:48.251Z,102419.63
2022-11-13T00:12:14.659Z,102421.56
2022-11-13T00:14:41.132Z,102427.75
2022-11-13T00:17:07.541Z,102409.88
2022-11-13T00:19:33.943Z,102411.81
2022-11-13T00:22:00.433Z,102413.75
2022-11-13T00:24:26.923Z,102404.34
2022-11-13T00:26:53.402Z,102409.50
2022-11-13T00:29:19.871Z,102408.59
2022-11-13T00:31:46.330Z,102407.81
2022-11-13T00:34:45.889Z,102399.06
2022-11-13T00:36:59.188Z,102403.97
2022-11-13T00:39:25.621Z,102408.97
2022-11-13T00:41:52.042Z,102402.03
2022-11-13T00:44:18.456Z,102397.38
2022-11-13T00:46:44.912Z,102405.72
2022-11-13T00:49:11.336Z,102398.66
2022-11-13T00:51:37.724Z,102400.09
2022-11-13T00:54:04.469Z,102403.56
2022-11-13T00:56:30.904Z,102399.06
2022-11-13T00:58:57.340Z,102399.78
2022-11-13T01:01:23.841Z,102396.97
2022-11-13T01:03:50.306Z,102394.13
2022-11-13T01:06:20.383Z,102387.69
2022-11-13T01:08:47.593Z,102387.41
2022-11-13T01:11:16.565Z,102391.53
2022-11-13T01:13:45.011Z,102386.00
2022-11-13T01:16:12.843Z,102383.94
2022-11-13T01:18:41.278Z,102375.94
2022-11-13T01:21:11.006Z,102373.88
2022-11-13T01:23:37.686Z,102373.75
2022-11-13T01:26:21.860Z,102378.63
2022-11-13T01:28:48.611Z,102371.38
2022-11-13T01:31:17.500Z,102371.13
2022-11-13T01:33:45.298Z,102371.91
2022-11-13T01:36:14.339Z,102371.50
2022-11-13T01:38:40.831Z,102367.91
2022-11-13T01:41:07.817Z,102365.03
2022-11-13T01:43:38.588Z,102370.81
2022-11-13T01:46:07.326Z,102367.22
2022-11-13T01:48:39.915Z,102363.75
2022-11-13T01:51:12.352Z,102356.69
2022-11-13T01:53:39.718Z,102365.91
2022-11-13T01:56:06.997Z,102358.69
2022-11-13T01:58:33.785Z,102358.69
2022-11-13T02:01:00.244Z,102367.16
2022-11-13T02:03:26.694Z,102364.31
2022-11-13T02:05:53.497Z,102367.25
2022-11-13T02:08:19.998Z,102363.66
2022-11-13T02:10:47.661Z,102358.34
2022-11-13T02:13:14.528Z,102360.66
2022-11-13T02:15:41.596Z,102350.91
2022-11-13T02:18:08.181Z,102349.88
2022-11-13T02:20:47.282Z,102344.59
2022-11-13T02:23:19.772Z,102347.78
2022-11-13T02:25:47.986Z,102341.72
2022-11-13T02:28:14.460Z,102344.16
2022-11-13T02:30:40.851Z,102342.34
2022-11-13T02:33:30.238Z,102333.63
2022-11-13T02:35:56.954Z,102332.72
2022-11-13T02:38:23.646Z,102338.34
2022-11-13T02:40:50.067Z,102334.91
2022-11-13T02:43:16.467Z,102329.75
2022-11-13T02:45:42.915Z,102329.63
2022-11-13T02:48:09.510Z,102332.78
2022-11-13T02:50:37.655Z,102328.41
2022-11-13T02:53:04.927Z,102323.16
2022-11-13T02:55:31.354Z,102326.34
2022-11-13T02:57:57.804Z,102327.88
2022-11-13T03:00:24.392Z,102332.75
2022-11-13T03:02:50.828Z,102324.91
2022-11-13T03:05:17.249Z,102316.03
2022-11-13T03:07:43.700Z,102323.44
2022-11-13T03:10:11.008Z,102315.47
2022-11-13T03:12:37.693Z,102315.22
2022-11-13T03:15:05.429Z,102317.66
2022-11-13T03:17:32.605Z,102318.25
2022-11-13T03:19:59.475Z,102317.34
2022-11-13T03:22:26.452Z,102311.94
2022-11-13T03:24:52.955Z,102311.03
2022-11-13T03:27:19.691Z,102317.69
2022-11-13T03:29:46.096Z,102303.84
2022-11-13T03:32:12.556Z,102312.28
2022-11-13T03:34:39.222Z,102307.16
2022-11-13T03:37:05.635Z,102309.72
2022-11-13T03:39:32.079Z,102311.66
2022-11-13T03:41:58.532Z,102304.88
2022-11-13T03:44:24.991Z,102308.34
2022-11-13T03:46:51.395Z,102320.41
2022-11-13T03:49:17.914Z,102309.50
2022-11-13T03:51:44.308Z,102306.31
2022-11-13T03:54:10.707Z,102304.66
2022-11-13T03:56:37.097Z,102304.66
2022-11-13T03:59:03.568Z,102298.03
2022-11-13T04:01:30.004Z,102313.69
2022-11-13T04:03:56.463Z,102308.81
2022-11-13T04:06:22.858Z,102310.63
2022-11-13T04:08:49.265Z,102301.38
2022-11-13T04:11:15.700Z,102300.75
2022-11-13T04:13:42.113Z,102298.34
2022-11-13T04:16:08.723Z,102299.41
2022-11-13T04:18:35.171Z,102303.13
2022-11-13T04:21:03.094Z,102302.50
2022-11-13T04:23:29.627Z,102303.53
2022-11-13T04:25:56.089Z,102296.84
2022-11-13T04:28:22.835Z,102295.34
2022-11-13T04:30:49.605Z,102293.81
2022-11-13T04:33:16.085Z,102288.97
2022-11-13T04:35:45.610Z,102284.84
2022-11-13T04:38:12.829Z,102291.16
2022-11-13T04:40:40.094Z,102287.09
2022-11-13T04:43:06.559Z,102291.56
2022-11-13T04:45:32.990Z,102296.97
2022-11-13T04:47:59.387Z,102288.75
2022-11-13T04:50:26.000Z,102289.03
2022-11-13T04:52:52.400Z,102285.56
2022-11-13T04:55:18.893Z,102285.84
2022-11-13T04:57:45.312Z,102282.66
2022-11-13T05:00:12.291Z,102279.31
2022-11-13T05:02:38.747Z,102286.25
2022-11-13T05:05:05.712Z,102285.59
2022-11-13T05:07:32.239Z,102283.16
2022-11-13T05:09:58.642Z,102287.06
2022-11-13T05:12:25.043Z,102282.19
2022-11-13T05:14:51.505Z,102281.81
2022-11-13T05:17:17.940Z,102271.94
2022-11-13T05:19:44.345Z,102273.22
2022-11-13T05:22:10.800Z,102274.38
2022-11-13T05:24:37.197Z,102268.78
2022-11-13T05:27:03.625Z,102259.78
2022-11-13T05:29:30.063Z,102257.59
2022-11-13T05:31:56.471Z,102264.81
2022-11-13T05:34:22.931Z,102253.00
2022-11-13T05:36:49.360Z,102253.38
2022-11-13T05:39:15.806Z,102255.28
2022-11-13T05:41:42.229Z,102252.97
2022-11-13T05:44:08.733Z,102242.19
2022-11-13T05:46:35.269Z,102242.44
2022-11-13T05:49:02.593Z,102246.28
2022-11-13T05:51:31.446Z,102243.09
2022-11-13T05:53:58.489Z,102236.53
2022-11-13T05:56:33.975Z,102236.03
2022-11-13T05:59:01.403Z,102241.28
2022-11-13T06:01:30.995Z,102232.78
2022-11-13T06:03:58.671Z,102231.91
2022-11-13T06:06:26.049Z,102236.38
2022-11-13T06:08:54.146Z,102232.16
2022-11-13T06:11:23.086Z,102231.53
2022-11-13T06:13:50.413Z,102233.19
2022-11-13T06:16:19.236Z,102226.38
2022-11-13T06:18:46.203Z,102222.13
2022-11-13T06:21:15.387Z,102226.63
2022-11-13T06:23:42.156Z,102220.97
2022-11-13T06:26:23.682Z,102221.84
2022-11-13T06:28:50.612Z,102223.78
2022-11-13T06:31:20.080Z,102224.94
2022-11-13T06:33:46.825Z,102222.75
2022-11-13T06:36:15.454Z,102223.00
2022-11-13T06:38:43.116Z,102225.69
2022-11-13T06:41:12.547Z,102220.84
2022-11-13T06:43:39.239Z,102227.91
2022-11-13T06:46:10.031Z,102226.25
2022-11-13T06:48:36.414Z,102231.63
2022-11-13T06:51:07.675Z,102230.06
2022-11-13T06:53:34.401Z,102238.03
2022-11-13T06:56:00.953Z,102235.75
2022-11-13T06:58:27.866Z,102229.94
2022-11-13T07:00:54.570Z,102237.25
2022-11-13T07:03:25.978Z,102226.19
2022-11-13T07:05:52.739Z,102229.13
2022-11-13T07:08:19.152Z,102233.75
2022-11-13T07:10:53.581Z,102244.28
2022-11-13T07:13:20.098Z,102238.38
2022-11-13T07:15:46.817Z,102241.06
2022-11-13T07:18:13.279Z,102232.66
2022-11-13T07:20:40.026Z,102237.06
2022-11-13T07:23:06.441Z,102240.66
2022-11-13T07:25:33.219Z,102241.56
2022-11-13T07:27:59.638Z,102243.38
2022-11-13T07:30:26.247Z,102240.00
2022-11-13T07:32:52.658Z,102243.38
2022-11-13T07:35:19.348Z,102238.22
2022-11-13T07:37:45.760Z,102234.88
2022-11-13T07:40:12.740Z,102237.56
2022-11-13T07:42:39.673Z,102228.16
2022-11-13T07:45:06.748Z,102227.38
2022-11-13T07:47:33.172Z,102230.97
2022-11-13T07:50:05.685Z,102229.41
2022-11-13T07:52:34.680Z,102229.56
2022-11-13T07:55:01.140Z,102215.00
2022-11-13T07:57:27.554Z,102217.94
2022-11-13T07:59:54.016Z,102223.44
2022-11-13T08:02:25.197Z,102225.50
2022-11-13T08:04:53.105Z,102231.69
2022-11-13T08:07:19.535Z,102223.28
2022-11-13T08:09:45.969Z,102225.19
2022-11-13T08:12:12.422Z,102232.66
2022-11-13T08:14:38.836Z,102220.91
2022-11-13T08:17:05.270Z,102228.84
2022-11-13T08:19:31.663Z,102226.00
2022-11-13T08:21:58.140Z,102213.47
2022-11-13T08:24:24.606Z,102220.88
2022-11-13T08:26:51.020Z,102220.47
2022-11-13T08:29:17.452Z,102226.75
2022-11-13T08:31:43.939Z,102228.78
2022-11-13T08:34:10.356Z,102230.84
2022-11-13T08:36:36.768Z,102221.66
2022-11-13T08:39:03.225Z,102225.34
2022-11-13T08:41:29.626Z,102223.00
2022-11-13T08:43:56.042Z,102215.63
2022-11-13T08:46:22.481Z,102220.13
2022-11-13T08:48:48.937Z,102216.75
2022-11-13T08:51:15.341Z,102216.09
2022-11-13T08:53:41.791Z,102216.31
2022-11-13T08:56:08.211Z,102213.22
2022-11-13T08:58:34.692Z,102215.91
2022-11-13T09:01:01.945Z,102217.69
2022-11-13T09:03:28.486Z,102210.97
2022-11-13T09:05:54.924Z,102220.59
2022-11-13T09:08:21.362Z,102213.88
2022-11-13T09:10:47.874Z,102207.19
2022-11-13T09:13:14.283Z,102215.03
2022-11-13T09:15:40.767Z,102205.59
2022-11-13T09:18:07.273Z,102204.81
2022-11-13T09:20:33.987Z,102191.03
2022-11-13T09:23:05.889Z,102199.66
2022-11-13T09:25:37.605Z,102196.53
2022-11-13T09:28:05.626Z,102193.25
2022-11-13T09:30:32.074Z,102203.59
2022-11-13T09:33:00.180Z,102197.63
2022-11-13T09:35:36.775Z,102198.78
2022-11-13T09:38:11.122Z,102198.78
2022-11-13T09:40:40.991Z,102204.06
2022-11-13T09:43:15.826Z,102193.97
2022-11-13T09:45:42.383Z,102186.44
2022-11-13T09:48:23.773Z,102191.81
2022-11-13T09:50:51.110Z,102191.28
2022-11-13T09:53:17.918Z,102187.91
2022-11-13T09:56:21.757Z,102184.53
2022-11-13T09:59:13.177Z,102183.19
2022-11-13T10:01:49.120Z,102169.72
2022-11-13T10:04:21.584Z,102160.63
2022-11-13T10:07:00.106Z,102160.97
2022-11-13T10:09:54.426Z,102165.69
2022-11-13T10:12:21.147Z,102159.16
2022-11-13T10:14:51.286Z,102157.59
2022-11-13T10:17:26.982Z,102156.91
2022-11-13T10:19:57.684Z,102155.47
2022-11-13T10:22:36.152Z,102147.91
2022-11-13T10:25:22.942Z,102146.44
2022-11-13T10:27:58.986Z,102144.22
2022-11-13T10:30:25.691Z,102146.78
2022-11-13T10:32:52.560Z,102148.84
2022-11-13T10:35:45.507Z,102141.09
2022-11-13T10:38:23.541Z,102140.41
2022-11-13T10:40:49.989Z,102129.38
2022-11-13T10:43:24.615Z,102130.97
2022-11-13T10:46:00.412Z,102125.09
2022-11-13T10:48:35.455Z,102124.41
2022-11-13T10:51:04.383Z,102120.25
2022-11-13T10:53:39.459Z,102118.56
2022-11-13T10:56:30.050Z,102104.75
2022-11-13T10:59:17.157Z,102104.75
2022-11-13T11:01:45.570Z,102099.81
2022-11-13T11:04:27.443Z,102093.97
2022-11-13T11:07:19.226Z,102093.16
2022-11-13T11:09:43.129Z,102092.59
2022-11-13T11:12:16.651Z,102084.13
2022-11-13T11:14:58.714Z,102078.41
2022-11-13T11:17:47.375Z,102087.97
2022-11-13T11:20:21.899Z,102086.25
2022-11-13T11:22:57.365Z,102080.41
2022-11-13T11:25:38.913Z,102072.25
2022-11-13T11:28:19.913Z,102067.31
2022-11-13T11:30:52.523Z,102070.91
2022-11-13T11:33:23.482Z,102072.91
2022-11-13T11:35:56.060Z,102063.56
2022-11-13T11:38:31.080Z,102068.81
2022-11-13T11:41:13.355Z,102063.00
2022-11-13T11:43:45.838Z,102069.25
2022-11-13T11:46:22.841Z,102070.16
2022-11-13T11:48:49.868Z,102070.25
2022-11-13T11:51:19.195Z,102066.97
2022-11-13T11:53:58.016Z,102060.31
2022-11-13T11:56:40.432Z,102053.44
2022-11-13T11:59:13.197Z,102056.25
2022-11-13T12:02:05.880Z,102049.41
2022-11-13T12:04:52.197Z,102041.72
2022-11-13T12:07:55.755Z,102044.22
2022-11-13T12:10:45.322Z,102035.75
2022-11-13T12:13:25.981Z,102028.00
2022-11-13T12:16:09.508Z,102031.59
2022-11-13T12:18:54.148Z,102024.34
2022-11-13T12:21:23.795Z,102020.44
2022-11-13T12:24:01.672Z,102016.06
2022-11-13T12:26:59.065Z,102021.25
2022-11-13T12:29:44.280Z,102018.75
2022-11-13T12:32:46.916Z,102010.28
2022-11-13T12:35:19.035Z,102013.91
2022-11-13T12:37:51.618Z,102007.94
2022-11-13T12:40:44.705Z,102004.56
2022-11-13T12:43:29.794Z,101998.66
2022-11-13T12:46:00.553Z,102003.16
2022-11-13T12:48:41.925Z,101987.63
2022-11-13T12:51:13.581Z,101984.44
2022-11-13T12:54:06.398Z,101986.22
2022-11-13T12:56:33.636Z,101988.00
2022-11-13T12:59:33.809Z,101993.97
2022-11-13T13:02:40.388Z,101991.38
2022-11-13T13:05:15.907Z,101986.22
2022-11-13T13:08:18.387Z,101986.22
2022-11-13T13:11:19.635Z,101980.47
2022-11-13T13:13:46.012Z,101972.81
2022-11-13T13:16:21.977Z,101968.44
2022-11-13T13:18:48.672Z,101966.72
2022-11-13T13:21:17.601Z,101962.56
2022-11-13T13:23:46.290Z,101957.38
2022-11-13T13:26:15.903Z,101954.88
2022-11-13T13:28:46.925Z,101947.22
2022-11-13T13:31:20.106Z,101952.56
2022-11-13T13:33:54.120Z,101946.03
2022-11-13T13:36:36.322Z,101947.81
2022-11-13T13:39:20.905Z,101935.84
2022-11-13T13:42:09.096Z,101937.66
2022-11-13T13:45:14.272Z,101923.09
2022-11-13T13:47:45.264Z,101916.22
2022-11-13T13:50:16.557Z,101932.47
2022-11-13T13:52:43.748Z,101925.69
2022-11-13T13:55:19.189Z,101922.41
2022-11-13T13:57:45.997Z,101923.19
2022-11-13T14:00:13.691Z,101919.53
2022-11-13T14:02:51.592Z,101917.94
2022-11-13T14:05:32.939Z,101917.94
2022-11-13T14:08:00.738Z,101912.75
2022-11-13T14:10:28.561Z,101913.66
2022-11-13T14:12:56.087Z,101915.44
2022-11-13T14:15:24.057Z,101910.97
2022-11-13T14:17:50.724Z,101921.31
2022-11-13T14:20:18.455Z,101910.06
2022-11-13T14:22:51.709Z,101918.81
2022-11-13T14:25:27.225Z,101911.94
2022-11-13T14:27:53.756Z,101911.94
2022-11-13T14:30:26.665Z,101915.53
2022-11-13T14:32:53.601Z,101919.13
2022-11-13T14:35:25.212Z,101925.28
2022-11-13T14:37:52.803Z,101919.31
2022-11-13T14:40:22.832Z,101915.75
2022-11-13T14:42:55.921Z,101920.13
2022-11-13T14:45:24.739Z,101924.41
2022-11-13T14:48:20.620Z,101921.72
2022-11-13T14:50:59.336Z,101914.84
2022-11-13T14:53:31.241Z,101907.88
2022-11-13T14:56:01.426Z,101913.97
2022-11-13T14:58:29.722Z,101913.75
2022-11-13T15:00:57.566Z,101914.63
2022-11-13T15:03:24.246Z,101910.16
2022-11-13T15:05:50.736Z,101906.88
2022-11-13T15:08:17.358Z,101900.88
2022-11-13T15:10:43.785Z,101893.13
2022-11-13T15:13:15.198Z,101888.75
2022-11-13T15:15:41.834Z,101889.66
2022-11-13T15:18:16.253Z,101887.88
2022-11-13T15:20:43.181Z,101878.31
2022-11-13T15:23:13.600Z,101880.91
2022-11-13T15:25:40.045Z,101871.16
2022-11-13T15:28:06.503Z,101867.69
2022-11-13T15:30:32.924Z,101861.44
2022-11-13T15:32:59.383Z,101852.69
2022-11-13T15:35:25.813Z,101850.69
2022-11-13T15:37:52.702Z,101850.41
2022-11-13T15:40:19.269Z,101844.97
2022-11-13T15:42:45.933Z,101837.78
2022-11-13T15:45:16.350Z,101844.38
2022-11-13T15:47:43.001Z,101843.97
2022-11-13T15:50:14.393Z,101854.84
2022-11-13T15:52:45.117Z,101857.72
2022-11-13T15:55:29.151Z,101846.03
2022-11-13T15:57:56.084Z,101842.22
2022-11-13T16:00:25.138Z,101844.63
2022-11-13T16:02:56.668Z,101843.25
2022-11-13T16:05:25.228Z,101848.03
2022-11-13T16:07:52.834Z,101835.53
2022-11-13T16:10:20.534Z,101827.44
2022-11-13T16:12:47.020Z,101830.63
2022-11-13T16:15:16.580Z,101833.72
2022-11-13T16:17:45.143Z,101832.50
2022-11-13T16:20:15.308Z,101830.72
2022-11-13T16:22:42.017Z,101824.56
2022-11-13T16:25:14.279Z,101827.75
2022-11-13T16:27:40.838Z,101826.75
2022-11-13T16:30:14.097Z,101826.53
2022-11-13T16:32:40.486Z,101817.56
2022-11-13T16:35:08.433Z,101814.91
2022-11-13T16:37:35.360Z,101825.13
2022-11-13T16:40:01.876Z,101825.69
2022-11-13T16:42:31.017Z,101820.13
2022-11-13T16:44:57.594Z,101820.72
2022-11-13T16:47:25.450Z,101817.94
2022-11-13T16:49:52.551Z,101818.53
2022-11-13T16:52:19.092Z,101821.69
2022-11-13T16:54:45.601Z,101822.19
2022-11-13T16:57:13.266Z,101819.38
2022-11-13T16:59:40.407Z,101820.88
2022-11-13T17:02:17.376Z,101809.34
2022-11-13T17:04:44.360Z,101807.56
2022-11-13T17:07:13.032Z,101805.53
2022-11-13T17:09:45.867Z,101801.97
2022-11-13T17:12:12.308Z,101796.72
2022-11-13T17:14:39.060Z,101797.41
2022-11-13T17:17:07.237Z,101800.78
2022-11-13T17:19:33.719Z,101800.69
2022-11-13T17:22:00.468Z,101802.91
2022-11-13T17:24:26.977Z,101795.97
2022-11-13T17:26:53.375Z,101800.13
2022-11-13T17:29:19.834Z,101794.88
2022-11-13T17:31:46.269Z,101798.16
2022-11-13T17:34:12.671Z,101795.38
2022-11-13T17:36:39.098Z,101805.44
2022-11-13T17:39:05.522Z,101799.19
2022-11-13T17:41:31.948Z,101793.81
2022-11-13T17:44:01.269Z,101799.44
2022-11-13T17:46:28.048Z,101801.03
2022-11-13T17:48:54.457Z,101795.47
2022-11-13T17:51:21.029Z,101791.88
2022-11-13T17:53:47.431Z,101792.56
2022-11-13T17:56:14.222Z,101788.06
2022-11-13T17:58:45.211Z,101786.06
2022-11-13T18:01:22.150Z,101776.34
2022-11-13T18:03:54.280Z,101778.72
2022-11-13T18:06:21.121Z,101775.13
2022-11-13T18:08:47.537Z,101770.63
2022-11-13T18:11:19.315Z,101767.84
2022-11-13T18:13:49.997Z,101770.13
2022-11-13T18:16:19.547Z,101771.66
2022-11-13T18:18:51.236Z,101766.19
2022-11-13T18:21:22.729Z,101765.00
2022-11-13T18:23:50.014Z,101761.31
2022-11-13T18:26:18.543Z,101763.53
2022-11-13T18:28:45.141Z,101751.25
2022-11-13T18:31:15.006Z,101747.56
2022-11-13T18:33:41.645Z,101756.84
2022-11-13T18:36:08.851Z,101743.63
2022-11-13T18:38:35.513Z,101739.06
2022-11-13T18:41:10.737Z,101739.84
2022-11-13T18:43:37.683Z,101736.38
2022-11-13T18:46:06.916Z,101742.53
2022-11-13T18:48:41.642Z,101744.31
2022-11-13T18:51:14.628Z,101741.75
2022-11-13T18:53:41.925Z,101742.66
2022-11-13T18:56:11.182Z,101740.97
2022-11-13T18:58:43.481Z,101742.75
2022-11-13T19:01:15.083Z,101735.81
2022-11-13T19:04:08.172Z,101735.81
2022-11-13T19:06:31.189Z,101732.03
2022-11-13T19:08:58.994Z,101736.94
2022-11-13T19:11:26.479Z,101731.56
2022-11-13T19:13:53.502Z,101738.28
2022-11-13T19:16:23.139Z,101733.81
2022-11-13T19:18:52.356Z,101737.09
2022-11-13T19:21:19.882Z,101730.03
2022-11-13T19:23:46.273Z,101720.16
2022-11-13T19:26:12.762Z,101717.50
2022-11-13T19:28:39.263Z,101709.75
2022-11-13T19:31:12.976Z,101725.09
2022-11-13T19:33:39.781Z,101717.38
2022-11-13T19:36:08.755Z,101714.81
2022-11-13T19:38:35.863Z,101708.78
2022-11-13T19:41:02.909Z,101713.91
2022-11-13T19:43:33.742Z,101704.50
2022-11-13T19:46:08.178Z,101703.50
2022-11-13T19:48:36.091Z,101705.41
2022-11-13T19:51:09.629Z,101708.88
2022-11-13T19:53:36.846Z,101701.16
2022-11-13T19:56:03.878Z,101710.09
2022-11-13T19:58:30.853Z,101703.38
2022-11-13T20:00:57.854Z,101701.72
2022-11-13T20:03:26.011Z,101696.88
2022-11-13T20:05:59.251Z,101697.09
2022-11-13T20:08:28.123Z,101703.25
2022-11-13T20:11:01.392Z,101696.63
2022-11-13T20:13:27.842Z,101699.34
2022-11-13T20:15:54.742Z,101690.03
2022-11-13T20:18:21.182Z,101693.50
2022-11-13T20:20:51.799Z,101691.03
2022-11-13T20:23:21.166Z,101695.38
2022-11-13T20:25:54.681Z,101694.69
2022-11-13T20:28:21.433Z,101686.97
2022-11-13T20:30:47.851Z,101687.09
2022-11-13T20:33:18.482Z,101688.88
2022-11-13T20:35:53.800Z,101684.50
2022-11-13T20:38:20.214Z,101678.56
2022-11-13T20:40:46.616Z,101689.66
2022-11-13T20:43:13.010Z,101683.63
2022-11-13T20:45:39.420Z,101693.91
2022-11-13T20:48:05.949Z,101687.78
2022-11-13T20:50:35.677Z,101677.34
2022-11-13T20:53:02.111Z,101688.66
2022-11-13T20:55:28.578Z,101677.34
2022-11-13T20:57:54.999Z,101681.81
2022-11-13T21:00:21.547Z,101683.63
2022-11-13T21:02:48.177Z,101681.81
2022-11-13T21:05:15.360Z,101672.41
2022-11-13T21:07:41.775Z,101674.19
2022-11-13T21:10:08.593Z,101667.25
2022-11-13T21:12:35.132Z,101660.53
2022-11-13T21:15:01.664Z,101657.97
2022-11-13T21:17:28.073Z,101657.16
2022-11-13T21:19:57.580Z,101644.28
2022-11-13T21:22:24.255Z,101646.88
2022-11-13T21:24:50.664Z,101644.28
2022-11-13T21:27:17.102Z,101652.03
2022-11-13T21:29:43.555Z,101646.06
2022-11-13T21:32:09.970Z,101652.03
2022-11-13T21:34:36.413Z,101652.91
2022-11-13T21:37:02.851Z,101646.88
2022-11-13T21:39:29.374Z,101651.13
2022-11-13T21:41:55.765Z,101652.81
2022-11-13T21:44:22.200Z,101648.44
2022-11-13T21:46:48.624Z,101648.34
2022-11-13T21:49:15.057Z,101651.81
2022-11-13T21:51:42.872Z,101653.38
2022-11-13T21:54:09.691Z,101644.78
2022-11-13T21:56:37.721Z,101654.06
2022-11-13T21:59:05.120Z,101648.81
2022-11-13T22:01:37.771Z,101643.56
2022-11-13T22:04:05.233Z,101643.56
2022-11-13T22:06:33.272Z,101634.81
2022-11-13T22:09:02.017Z,101634.72
2022-11-13T22:11:30.925Z,101631.13
2022-11-13T22:13:57.691Z,101638.88
2022-11-13T22:16:25.293Z,101624.31
2022-11-13T22:18:55.836Z,101620.84
2022-11-13T22:21:23.337Z,101626.78
2022-11-13T22:23:50.216Z,101621.63
2022-11-13T22:26:17.417Z,101619.84
2022-11-13T22:28:44.966Z,101618.06
2022-11-13T22:31:16.975Z,101616.28
2022-11-13T22:33:47.807Z,101617.06
2022-11-13T22:36:18.454Z,101613.59
2022-11-13T22:38:44.938Z,101609.25
2022-11-13T22:41:22.568Z,101604.97
2022-11-13T22:44:00.683Z,101607.56
2022-11-13T22:46:29.162Z,101601.41
2022-11-13T22:48:57.429Z,101599.63
2022-11-13T22:51:31.853Z,101594.47
2022-11-13T22:54:00.456Z,101595.22
2022-11-13T22:56:29.329Z,101598.84
2022-11-13T22:58:57.087Z,101598.84
2022-11-13T23:01:32.132Z,101597.94
2022-11-13T23:04:01.186Z,101592.66
2022-11-13T23:06:29.326Z,101588.44
2022-11-13T23:08:55.792Z,101590.88
2022-11-13T23:11:26.432Z,101586.50
2022-11-13T23:13:55.170Z,101582.34
2022-11-13T23:16:22.804Z,101583.16
2022-11-13T23:18:50.416Z,101578.88
2022-11-13T23:21:17.574Z,101580.47
2022-11-13T23:23:44.194Z,101584.72
2022-11-13T23:26:11.481Z,101573.44
2022-11-13T23:28:39.431Z,101569.06
2022-11-13T23:31:06.129Z,101565.41
2022-11-13T23:33:32.553Z,101572.22
2022-11-13T23:35:59.347Z,101563.50
2022-11-13T23:38:25.951Z,101559.16
2022-11-13T23:40:54.464Z,101552.97
2022-11-13T23:43:21.161Z,101563.06
2022-11-13T23:45:47.574Z,101556.94
2022-11-13T23:48:14.012Z,101560.88
2022-11-13T23:50:40.483Z,101557.25
2022-11-13T23:53:06.888Z,101554.38
2022-11-13T23:55:33.436Z,101554.97
2022-11-13T23:58:01.065Z,101556.44
